Time;durP1;ratioP1;P1;durP2;ratioP2;P2;SDS_P1;SDS_P2;PMS_P1;PMS_P2;Temp;Humidity;BMP_temperature;BMP_pressure;BME280_temperature;BME280_humidity;BME280_pressure;Samples;Min_cycle;Max_cycle;Signal;HPM_P1;HPM_P2
2022/06/02 00:00:48;;;;;;;1.83;1.60;;;17.50;55.40;;;;;;5051147;28;20175;-68
2022/06/02 00:03:19;;;;;;;1.88;1.50;;;17.50;55.40;;;;;;5051786;28;20185;-69
2022/06/02 00:06:14;;;;;;;1.58;1.30;;;17.50;55.40;;;;;;5051993;28;20201;-69
2022/06/02 00:09:18;;;;;;;1.55;1.45;;;17.50;55.50;;;;;;5047622;28;20218;-69
2022/06/02 00:11:54;;;;;;;1.48;1.33;;;17.50;55.40;;;;;;5051906;28;20225;-68
2022/06/02 00:14:51;;;;;;;1.55;1.45;;;17.50;55.50;;;;;;5052797;28;20175;-66
2022/06/02 00:17:41;;;;;;;1.50;1.40;;;17.50;55.60;;;;;;5052451;28;20369;-68
2022/06/02 00:20:30;;;;;;;1.70;1.45;;;17.40;55.70;;;;;;5050841;28;20186;-68
2022/06/02 00:23:32;;;;;;;1.60;1.50;;;17.50;56.00;;;;;;5050878;28;20712;-68
2022/06/02 00:26:20;;;;;;;2.03;1.25;;;17.40;56.00;;;;;;5051283;28;20963;-68
2022/06/02 00:28:52;;;;;;;1.45;1.35;;;17.40;56.10;;;;;;5051976;28;20215;-68
2022/06/02 00:31:46;;;;;;;1.40;1.30;;;17.40;56.10;;;;;;5051131;28;20498;-68
2022/06/02 00:34:14;;;;;;;1.42;1.35;;;17.40;56.20;;;;;;5051446;28;20536;-68
2022/06/02 00:37:01;;;;;;;2.30;1.50;;;17.40;56.30;;;;;;5050950;28;20532;-69
2022/06/02 00:39:28;;;;;;;1.73;1.63;;;17.40;56.30;;;;;;5051046;28;20179;-68
2022/06/02 00:41:54;;;;;;;1.73;1.20;;;17.40;56.30;;;;;;5049772;28;21010;-68
2022/06/02 00:44:56;;;;;;;2.80;1.70;;;17.40;56.40;;;;;;5052049;28;20206;-68
2022/06/02 00:47:40;;;;;;;2.30;1.73;;;17.40;56.40;;;;;;5050314;28;20229;-68
2022/06/02 00:50:37;;;;;;;1.50;1.40;;;17.30;56.30;;;;;;5050928;28;20591;-69
2022/06/02 00:53:08;;;;;;;1.50;1.40;;;17.40;56.40;;;;;;5050943;28;20240;-69
2022/06/02 00:59:03;;;;;;;1.48;1.38;;;17.40;56.40;;;;;;5051136;28;20641;-67
2022/06/02 01:01:30;;;;;;;1.50;1.40;;;17.40;56.50;;;;;;5051161;28;20227;-69
2022/06/02 01:03:56;;;;;;;2.60;1.58;;;17.40;56.40;;;;;;5051798;28;20179;-69
2022/06/02 01:06:51;;;;;;;1.48;1.38;;;17.40;56.40;;;;;;5052032;28;20298;-69
2022/06/02 01:09:36;;;;;;;1.80;1.70;;;17.30;57.10;;;;;;5042973;28;20226;-69
2022/06/02 01:12:29;;;;;;;2.10;1.90;;;17.30;56.60;;;;;;5052263;28;20250;-68
2022/06/02 01:15:41;;;;;;;1.63;1.52;;;17.30;56.50;;;;;;5050851;28;20346;-68
2022/06/02 01:18:24;;;;;;;1.25;1.20;;;17.30;56.50;;;;;;5035062;28;20269;-68
2022/06/02 01:21:03;;;;;;;2.28;1.55;;;17.30;56.50;;;;;;5050247;28;20206;-68
2022/06/02 01:23:52;;;;;;;1.48;1.38;;;17.30;56.50;;;;;;5049645;28;20628;-68
2022/06/02 01:26:42;;;;;;;1.80;1.60;;;17.30;56.50;;;;;;5050618;28;20181;-68
2022/06/02 01:29:33;;;;;;;1.60;1.50;;;17.30;56.60;;;;;;5049722;28;20265;-69
2022/06/02 01:32:09;;;;;;;1.58;1.48;;;17.30;56.70;;;;;;5051399;28;20535;-69
2022/06/02 01:34:42;;;;;;;1.45;1.35;;;17.30;56.70;;;;;;5049923;28;20175;-69
2022/06/02 01:37:16;;;;;;;1.60;1.50;;;17.30;56.60;;;;;;5049658;28;20682;-69
2022/06/02 01:40:11;;;;;;;1.73;1.50;;;17.30;56.70;;;;;;5051220;28;20609;-68
2022/06/02 01:42:43;;;;;;;1.50;1.45;;;17.30;56.70;;;;;;5031588;28;20201;-69
2022/06/02 01:45:28;;;;;;;1.52;1.42;;;17.30;56.70;;;;;;5049615;28;20167;-69
2022/06/02 01:48:22;;;;;;;1.80;1.63;;;17.30;56.80;;;;;;5051000;28;20684;-69
2022/06/02 01:51:24;;;;;;;1.77;1.58;;;17.20;56.70;;;;;;5049399;28;20195;-69
2022/06/02 01:54:02;;;;;;;1.88;1.77;;;17.20;56.80;;;;;;5052423;28;20180;-69
2022/06/02 01:56:46;;;;;;;1.88;1.77;;;17.20;56.80;;;;;;5055639;28;20266;-68
2022/06/02 01:59:36;;;;;;;1.90;1.80;;;17.20;56.80;;;;;;5054590;28;20175;-68
2022/06/02 02:02:38;;;;;;;2.20;2.10;;;17.20;56.80;;;;;;5053988;28;20242;-69
2022/06/02 02:05:22;;;;;;;2.67;2.47;;;17.20;56.80;;;;;;5054708;28;20545;-69
2022/06/02 02:08:12;;;;;;;2.15;2.05;;;17.20;56.80;;;;;;5055121;28;20302;-69
2022/06/02 02:11:02;;;;;;;2.20;2.03;;;17.20;56.80;;;;;;5054736;28;20167;-68
2022/06/02 02:13:28;;;;;;;2.20;2.10;;;17.20;56.70;;;;;;5053196;28;20281;-68
2022/06/02 02:16:12;;;;;;;3.08;2.10;;;17.20;56.70;;;;;;5054836;28;20591;-68
2022/06/02 02:18:58;;;;;;;2.40;2.20;;;17.20;56.70;;;;;;5054180;28;20171;-68
2022/06/02 02:21:43;;;;;;;2.20;2.10;;;17.10;56.60;;;;;;5053624;28;20229;-68
2022/06/02 02:24:18;;;;;;;2.30;2.20;;;17.10;56.70;;;;;;5054098;28;20179;-69
2022/06/02 02:26:59;;;;;;;2.10;2.00;;;17.10;56.50;;;;;;5052626;28;20531;-68
2022/06/02 02:30:06;;;;;;;2.17;2.00;;;17.20;56.50;;;;;;5053574;28;20221;-69
2022/06/02 02:32:59;;;;;;;2.50;2.30;;;17.10;56.60;;;;;;5052771;28;20278;-69
2022/06/02 02:35:39;;;;;;;2.60;2.40;;;17.10;56.50;;;;;;5053621;28;20187;-69
2022/06/02 02:38:32;;;;;;;2.20;2.00;;;17.10;56.50;;;;;;5053516;28;20544;-68
2022/06/02 02:41:01;;;;;;;2.10;2.00;;;17.10;56.50;;;;;;5052400;28;20194;-69
2022/06/02 02:43:40;;;;;;;2.05;1.95;;;17.10;56.50;;;;;;5053459;28;20201;-69
2022/06/02 02:46:22;;;;;;;2.78;2.58;;;17.20;56.50;;;;;;5053346;28;20178;-68
2022/06/02 02:49:02;;;;;;;2.85;2.65;;;17.10;56.30;;;;;;5052994;28;20238;-69
2022/06/02 02:51:32;;;;;;;2.35;2.15;;;17.10;56.40;;;;;;5054384;28;20178;-69
2022/06/02 02:54:11;;;;;;;2.45;2.33;;;17.10;56.30;;;;;;5053560;28;20186;-69
2022/06/02 02:57:01;;;;;;;2.45;2.35;;;17.00;56.30;;;;;;5052904;28;20202;-68
2022/06/02 02:59:45;;;;;;;2.50;2.30;;;17.10;56.40;;;;;;5054309;28;20178;-69
2022/06/02 03:02:49;;;;;;;2.38;2.28;;;17.00;56.30;;;;;;5053440;28;20360;-69
2022/06/02 03:05:22;;;;;;;2.42;2.20;;;17.00;56.40;;;;;;5052751;28;20187;-70
2022/06/02 03:07:48;;;;;;;2.45;2.25;;;17.00;56.30;;;;;;5051660;28;20215;-69
2022/06/02 03:10:27;;;;;;;3.03;2.70;;;17.00;56.20;;;;;;5054201;28;20163;-68
2022/06/02 03:13:07;;;;;;;2.72;2.45;;;17.00;56.20;;;;;;5052684;28;20281;-68
2022/06/02 03:15:50;;;;;;;2.75;2.55;;;17.00;56.30;;;;;;5053328;28;20614;-68
2022/06/02 03:18:24;;;;;;;2.15;2.05;;;17.00;56.20;;;;;;5053970;28;20545;-68
2022/06/02 03:21:19;;;;;;;2.95;2.33;;;17.00;56.10;;;;;;5053809;28;20179;-68
2022/06/02 03:24:13;;;;;;;2.63;2.53;;;17.00;56.20;;;;;;5051695;28;20222;-68
2022/06/02 03:27:03;;;;;;;2.45;2.35;;;17.00;56.00;;;;;;5052119;28;20256;-68
2022/06/02 03:29:53;;;;;;;2.60;2.40;;;17.00;56.00;;;;;;5053579;28;20215;-69
2022/06/02 03:32:56;;;;;;;2.95;2.75;;;17.00;56.00;;;;;;5053609;28;20634;-69
2022/06/02 03:35:27;;;;;;;2.45;2.30;;;17.00;55.90;;;;;;5053656;28;20320;-69
2022/06/02 03:38:16;;;;;;;2.35;2.15;;;17.00;56.10;;;;;;5052738;28;20174;-69
2022/06/02 03:40:48;;;;;;;2.50;2.40;;;17.00;56.00;;;;;;5053071;28;20737;-69
2022/06/02 03:43:19;;;;;;;2.45;2.35;;;16.90;56.00;;;;;;5052744;28;20183;-69
2022/06/02 03:46:05;;;;;;;2.63;2.42;;;17.00;55.80;;;;;;5051643;28;20657;-69
2022/06/02 03:48:49;;;;;;;2.65;2.45;;;17.00;56.00;;;;;;5052190;28;20229;-69
2022/06/02 03:51:33;;;;;;;2.83;2.58;;;17.00;56.00;;;;;;5051508;28;20244;-69
2022/06/02 03:54:18;;;;;;;2.72;2.55;;;16.90;56.80;;;;;;5053057;28;20175;-69
2022/06/02 03:56:46;;;;;;;2.80;2.58;;;16.90;56.10;;;;;;5052337;28;20171;-68
2022/06/02 03:59:41;;;;;;;2.35;2.25;;;17.00;56.10;;;;;;5053117;28;20256;-68
2022/06/02 04:02:09;;;;;;;2.75;2.55;;;16.90;55.90;;;;;;5052759;28;20234;-69
2022/06/02 04:04:39;;;;;;;2.50;2.30;;;17.00;56.00;;;;;;5052218;28;20179;-69
2022/06/02 04:07:23;;;;;;;2.63;2.42;;;16.90;55.90;;;;;;5051836;28;20227;-70
2022/06/02 04:09:51;;;;;;;2.60;2.40;;;16.90;55.90;;;;;;5052608;28;20186;-68
2022/06/02 04:15:36;;;;;;;3.17;2.72;;;17.00;55.80;;;;;;5051569;28;20182;-68
2022/06/02 04:18:08;;;;;;;2.67;2.47;;;17.00;55.90;;;;;;5050356;28;20181;-68
2022/06/02 04:20:50;;;;;;;2.65;2.47;;;17.00;55.70;;;;;;5051419;28;20198;-69
2022/06/02 04:23:22;;;;;;;2.00;1.90;;;17.00;55.60;;;;;;5052777;28;20179;-68
2022/06/02 04:26:25;;;;;;;3.10;2.90;;;17.00;55.70;;;;;;5050342;28;20526;-69
2022/06/02 04:29:09;;;;;;;2.28;2.08;;;17.00;55.70;;;;;;5052081;28;20677;-69
2022/06/02 04:31:56;;;;;;;2.97;2.78;;;17.00;55.70;;;;;;5052437;28;20190;-69
2022/06/02 04:34:30;;;;;;;2.90;2.60;;;17.00;55.70;;;;;;5052586;28;20179;-69
2022/06/02 04:37:16;;;;;;;2.50;2.40;;;17.00;55.70;;;;;;5051984;28;20508;-69
2022/06/02 04:40:16;;;;;;;2.78;2.58;;;17.00;55.60;;;;;;5050331;28;20198;-69
2022/06/02 04:42:51;;;;;;;2.25;2.15;;;17.30;55.80;;;;;;5052102;28;20182;-70
2022/06/02 04:45:41;;;;;;;3.13;2.20;;;17.00;55.60;;;;;;5051092;28;20224;-69
2022/06/02 04:48:13;;;;;;;2.15;2.05;;;17.00;55.70;;;;;;5050130;28;20210;-69
2022/06/02 04:50:52;;;;;;;2.10;2.00;;;17.00;55.80;;;;;;5050938;28;20175;-69
2022/06/02 04:53:25;;;;;;;2.40;2.30;;;17.00;55.70;;;;;;5050148;28;20626;-69
2022/06/02 04:56:15;;;;;;;2.70;2.50;;;17.00;55.90;;;;;;5050865;28;20613;-69
2022/06/02 04:58:58;;;;;;;2.55;2.35;;;17.00;55.90;;;;;;5052022;28;20181;-69
2022/06/02 05:01:39;;;;;;;2.40;2.30;;;17.00;55.90;;;;;;5051130;28;20247;-69
2022/06/02 05:04:21;;;;;;;2.45;2.25;;;17.00;56.10;;;;;;5050737;28;20286;-69
2022/06/02 05:07:21;;;;;;;2.20;2.10;;;17.00;56.10;;;;;;5050513;28;20217;-69
2022/06/02 05:10:06;;;;;;;2.22;2.13;;;17.10;56.10;;;;;;5037266;28;20209;-68
2022/06/02 05:12:36;;;;;;;2.42;2.33;;;17.00;56.10;;;;;;5050869;28;20186;-67
2022/06/02 05:15:34;;;;;;;2.28;2.17;;;17.00;56.20;;;;;;5049923;28;20175;-68
2022/06/02 05:18:18;;;;;;;2.25;2.15;;;17.10;56.30;;;;;;5052115;28;20171;-68
2022/06/02 05:21:08;;;;;;;2.20;2.10;;;17.00;56.30;;;;;;5051589;28;20241;-68
2022/06/02 05:24:05;;;;;;;2.60;2.05;;;17.00;56.40;;;;;;5052036;28;20225;-68
2022/06/02 05:26:33;;;;;;;2.30;2.10;;;17.10;57.10;;;;;;5050777;28;20286;-68
2022/06/02 05:29:08;;;;;;;1.95;1.85;;;17.10;57.10;;;;;;5049748;28;20237;-69
2022/06/02 05:32:04;;;;;;;2.13;2.00;;;17.10;56.50;;;;;;5050389;28;20584;-69
2022/06/02 05:34:58;;;;;;;2.28;2.15;;;17.10;56.50;;;;;;5050505;28;20220;-69
2022/06/02 05:37:49;;;;;;;2.17;2.03;;;17.10;56.50;;;;;;5049675;28;20172;-69
2022/06/02 05:40:15;;;;;;;2.25;2.05;;;17.10;56.50;;;;;;5051743;28;20266;-69
2022/06/02 05:43:07;;;;;;;2.30;2.05;;;17.10;56.60;;;;;;5049278;28;20175;-68
2022/06/02 05:45:45;;;;;;;2.13;2.03;;;17.10;56.70;;;;;;5050251;28;20258;-69
2022/06/02 05:48:29;;;;;;;2.00;1.90;;;17.10;56.60;;;;;;5051254;28;20221;-69
2022/06/02 05:51:28;;;;;;;1.95;1.85;;;17.10;56.60;;;;;;5050651;28;20181;-69
2022/06/02 05:54:12;;;;;;;1.95;1.85;;;17.10;56.70;;;;;;5049711;28;20248;-69
2022/06/02 05:56:39;;;;;;;2.25;2.00;;;17.10;56.70;;;;;;5050478;28;20257;-68
2022/06/02 06:00:01;;;;;;;2.10;1.77;;;17.10;56.80;;;;;;5051340;28;20236;-69
2022/06/02 06:02:41;;;;;;;2.10;1.85;;;17.10;56.60;;;;;;5029199;28;20306;-68
2022/06/02 06:05:28;;;;;;;2.00;1.90;;;17.10;56.50;;;;;;5013112;28;20186;-69
2022/06/02 06:08:17;;;;;;;1.95;1.80;;;17.10;56.50;;;;;;5037764;28;20567;-69
2022/06/02 06:11:21;;;;;;;1.80;1.70;;;17.10;56.40;;;;;;5049057;28;20175;-69
2022/06/02 06:14:11;;;;;;;1.70;1.60;;;17.20;56.30;;;;;;5051128;28;20179;-68
2022/06/02 06:16:39;;;;;;;1.88;1.75;;;17.20;56.30;;;;;;5050794;28;20309;-68
2022/06/02 06:19:37;;;;;;;1.63;1.50;;;17.20;56.30;;;;;;5049279;28;20175;-68
2022/06/02 06:22:24;;;;;;;2.65;1.50;;;17.20;56.20;;;;;;5050262;28;20178;-68
2022/06/02 06:25:02;;;;;;;1.73;1.63;;;17.20;56.20;;;;;;5050177;28;20179;-68
2022/06/02 06:28:09;;;;;;;1.40;1.35;;;17.30;56.20;;;;;;5050978;28;20263;-69
2022/06/02 06:30:56;;;;;;;1.70;1.60;;;17.30;56.20;;;;;;5049646;28;20641;-69
2022/06/02 06:33:47;;;;;;;1.45;1.35;;;17.30;56.30;;;;;;5049154;28;20209;-70
2022/06/02 06:36:45;;;;;;;1.73;1.50;;;17.30;56.30;;;;;;5050865;28;20167;-70
2022/06/02 06:39:22;;;;;;;3.60;1.65;;;17.40;56.20;;;;;;5049126;28;20183;-68
2022/06/02 06:42:17;;;;;;;1.75;1.65;;;17.40;56.20;;;;;;5053023;28;20175;-66
2022/06/02 06:44:52;;;;;;;2.17;1.77;;;17.50;56.20;;;;;;5053210;28;20183;-67
2022/06/02 06:47:37;;;;;;;4.18;1.70;;;17.50;56.30;;;;;;5053904;28;20642;-67
2022/06/02 06:50:28;;;;;;;3.85;1.75;;;17.60;56.10;;;;;;5054698;28;20207;-66
2022/06/02 06:53:06;;;;;;;2.05;1.90;;;17.50;56.30;;;;;;5052377;28;20175;-67
2022/06/02 06:55:57;;;;;;;1.83;1.33;;;17.50;56.30;;;;;;5053525;28;20240;-66
2022/06/02 06:58:59;;;;;;;1.50;1.40;;;17.50;56.50;;;;;;5054449;28;20202;-67
2022/06/02 07:01:46;;;;;;;1.67;1.17;;;17.40;56.50;;;;;;5053453;28;20229;-68
2022/06/02 07:04:39;;;;;;;3.63;1.80;;;17.40;56.60;;;;;;5053339;28;20233;-67
2022/06/02 07:07:22;;;;;;;3.28;1.65;;;17.40;56.70;;;;;;5053769;28;20491;-67
2022/06/02 07:09:50;;;;;;;4.07;2.15;;;17.40;57.00;;;;;;5053927;28;20265;-66
2022/06/02 07:15:18;;;;;;;3.17;1.30;;;17.50;56.90;;;;;;5052573;28;20182;-65
2022/06/02 07:18:20;;;;;;;1.75;1.40;;;17.50;57.00;;;;;;5052572;28;20191;-65
2022/06/02 07:21:15;;;;;;;1.65;1.40;;;17.50;57.10;;;;;;5053264;28;20236;-66
2022/06/02 07:23:49;;;;;;;2.05;1.50;;;17.50;57.10;;;;;;5052564;28;20649;-66
2022/06/02 07:26:46;;;;;;;2.78;1.60;;;17.50;57.20;;;;;;5053922;28;20267;-65
2022/06/02 07:29:36;;;;;;;2.47;1.60;;;17.50;57.30;;;;;;5048742;28;20227;-67
2022/06/02 07:32:18;;;;;;;1.70;1.60;;;17.50;57.30;;;;;;5052589;28;20179;-69
2022/06/02 07:35:04;;;;;;;2.47;1.42;;;17.50;57.40;;;;;;5051549;28;20520;-69
2022/06/02 07:38:01;;;;;;;1.63;1.50;;;17.50;57.20;;;;;;5053816;28;20625;-67
2022/06/02 07:41:00;;;;;;;2.25;1.48;;;17.50;57.40;;;;;;5053777;28;20266;-66
2022/06/02 07:43:50;;;;;;;2.58;1.38;;;17.50;57.70;;;;;;5048946;28;20631;-67
2022/06/02 07:46:29;;;;;;;1.73;1.30;;;17.50;57.60;;;;;;5053525;28;20294;-67
2022/06/02 07:49:23;;;;;;;3.13;1.55;;;17.50;57.70;;;;;;5052564;28;20584;-67
2022/06/02 07:52:19;;;;;;;3.90;1.60;;;17.50;57.60;;;;;;5052873;28;20254;-67
2022/06/02 07:55:11;;;;;;;4.25;1.70;;;17.60;57.40;;;;;;5053565;28;20181;-68
2022/06/02 07:58:04;;;;;;;2.08;1.80;;;17.60;57.30;;;;;;5050847;28;20183;-67
2022/06/02 08:00:38;;;;;;;2.33;1.40;;;17.70;57.20;;;;;;5053451;28;20642;-66
2022/06/02 08:03:23;;;;;;;2.25;1.70;;;17.70;57.10;;;;;;5051313;28;20234;-68
2022/06/02 08:05:48;;;;;;;2.53;1.42;;;17.60;57.10;;;;;;5051796;28;20178;-67
2022/06/02 08:08:20;;;;;;;3.83;1.60;;;17.60;57.10;;;;;;5053074;28;20215;-67
2022/06/02 08:11:02;;;;;;;2.00;1.73;;;17.60;57.20;;;;;;5052201;28;20175;-66
2022/06/02 08:13:38;;;;;;;2.97;1.83;;;17.70;57.10;;;;;;5051843;28;20530;-65
2022/06/02 08:16:08;;;;;;;2.92;1.63;;;17.80;57.10;;;;;;5051721;28;20253;-66
2022/06/02 08:18:49;;;;;;;2.40;1.30;;;17.80;57.00;;;;;;5050472;28;20186;-66
2022/06/02 08:21:25;;;;;;;3.70;1.60;;;17.80;57.00;;;;;;5051561;28;20254;-65
2022/06/02 08:23:56;;;;;;;1.63;1.35;;;17.80;57.20;;;;;;5052730;28;20259;-66
2022/06/02 08:26:40;;;;;;;1.98;1.30;;;17.70;57.20;;;;;;5052774;28;20186;-66
2022/06/02 08:29:24;;;;;;;1.65;1.40;;;17.80;57.20;;;;;;5053166;28;20217;-66
2022/06/02 08:31:56;;;;;;;1.33;1.23;;;17.80;57.00;;;;;;5051891;28;20171;-68
2022/06/02 08:34:28;;;;;;;2.03;1.40;;;17.90;57.00;;;;;;5052843;28;20186;-67
2022/06/02 08:37:08;;;;;;;1.70;1.60;;;17.90;57.00;;;;;;5051258;28;20934;-67
2022/06/02 08:39:55;;;;;;;1.60;1.50;;;17.90;56.90;;;;;;5050984;28;20181;-67
2022/06/02 08:42:47;;;;;;;1.70;1.60;;;17.90;56.90;;;;;;5051643;28;20182;-66
2022/06/02 08:45:33;;;;;;;1.80;1.45;;;18.00;57.50;;;;;;5049127;28;20687;-67
2022/06/02 08:48:27;;;;;;;2.17;1.42;;;18.00;56.80;;;;;;5051035;28;20227;-67
2022/06/02 08:51:30;;;;;;;2.33;1.45;;;18.00;56.80;;;;;;5052089;28;20645;-67
2022/06/02 08:54:32;;;;;;;2.25;1.27;;;18.00;56.90;;;;;;5050194;28;20198;-66
2022/06/02 08:57:26;;;;;;;1.55;1.30;;;17.90;57.10;;;;;;5050987;28;20199;-67
2022/06/02 09:00:10;;;;;;;1.60;1.42;;;17.80;57.20;;;;;;5051250;28;20185;-67
2022/06/02 09:03:01;;;;;;;1.92;1.38;;;17.80;57.30;;;;;;5051888;28;20222;-67
2022/06/02 09:05:54;;;;;;;1.95;1.40;;;17.80;57.40;;;;;;5051084;28;20175;-67
2022/06/02 09:08:29;;;;;;;1.85;1.10;;;17.80;57.50;;;;;;5051416;28;20206;-66
2022/06/02 09:11:20;;;;;;;1.20;1.10;;;17.80;57.50;;;;;;5050753;28;20722;-65
2022/06/02 09:14:07;;;;;;;1.42;1.33;;;17.70;57.50;;;;;;5049700;28;20254;-65
2022/06/02 09:17:36;;;;;;;1.42;1.30;;;17.90;57.30;;;;;;5052068;28;20175;-65
2022/06/02 09:20:15;;;;;;;1.73;1.60;;;18.00;57.10;;;;;;5002990;28;20185;-65
2022/06/02 09:22:54;;;;;;;1.48;1.33;;;18.10;57.00;;;;;;5044086;28;20563;-66
2022/06/02 09:25:42;;;;;;;1.23;1.13;;;18.10;56.90;;;;;;5052239;28;20538;-66
2022/06/02 09:28:45;;;;;;;1.73;1.50;;;18.10;56.80;;;;;;5051533;28;20202;-66
2022/06/02 09:31:32;;;;;;;1.75;1.50;;;18.10;56.80;;;;;;5051848;28;20179;-67
2022/06/02 09:34:07;;;;;;;1.98;1.10;;;18.20;56.80;;;;;;5050501;28;20248;-67
2022/06/02 09:36:54;;;;;;;1.50;1.35;;;18.10;57.00;;;;;;5051217;28;20608;-66
2022/06/02 09:39:52;;;;;;;1.15;1.05;;;18.10;57.00;;;;;;5050434;28;20199;-66
2022/06/02 09:42:45;;;;;;;1.25;1.15;;;18.10;57.10;;;;;;5050137;28;20174;-66
2022/06/02 09:45:31;;;;;;;1.40;1.30;;;18.20;57.00;;;;;;5050540;28;20175;-66
2022/06/02 09:48:15;;;;;;;1.50;1.40;;;18.20;56.90;;;;;;5049955;28;20264;-67
2022/06/02 09:51:11;;;;;;;2.17;1.40;;;18.20;56.70;;;;;;5050792;28;20174;-67
2022/06/02 09:53:51;;;;;;;1.13;1.13;;;18.30;56.70;;;;;;5051361;28;20175;-66
2022/06/02 09:56:24;;;;;;;1.38;1.27;;;18.30;56.60;;;;;;5049593;28;20194;-67
2022/06/02 09:59:18;;;;;;;1.30;1.20;;;18.40;56.60;;;;;;5050076;28;20175;-67
2022/06/02 10:01:44;;;;;;;2.70;1.65;;;18.40;56.60;;;;;;5050048;28;20226;-67
2022/06/02 10:04:30;;;;;;;1.42;1.33;;;18.40;56.50;;;;;;5050939;28;20722;-67
2022/06/02 10:07:17;;;;;;;1.38;1.27;;;18.40;56.50;;;;;;5049986;28;20175;-67
2022/06/02 10:10:09;;;;;;;1.23;1.13;;;18.50;56.50;;;;;;5048992;28;20222;-66
2022/06/02 10:12:57;;;;;;;1.08;1.05;;;18.50;56.40;;;;;;5050108;28;20187;-65
2022/06/02 10:15:41;;;;;;;1.40;1.30;;;18.50;56.30;;;;;;5052131;28;20525;-66
2022/06/02 10:18:11;;;;;;;1.85;1.45;;;18.50;56.20;;;;;;5065239;28;20167;-65
2022/06/02 10:21:08;;;;;;;1.98;1.10;;;18.50;56.10;;;;;;5059514;28;20182;-65
2022/06/02 10:23:45;;;;;;;1.50;1.08;;;18.60;56.20;;;;;;5074625;28;20177;-66
2022/06/02 10:26:26;;;;;;;1.58;1.27;;;18.60;56.10;;;;;;5058494;28;20265;-66
2022/06/02 10:29:12;;;;;;;1.10;1.10;;;18.50;56.30;;;;;;5038039;28;20264;-68
2022/06/02 10:32:16;;;;;;;1.33;1.00;;;18.40;56.50;;;;;;5038248;28;20183;-68
2022/06/02 10:35:15;;;;;;;1.63;1.30;;;18.40;56.60;;;;;;5049078;28;20206;-67
2022/06/02 10:37:56;;;;;;;1.55;1.10;;;18.30;56.60;;;;;;5073933;28;20183;-67
2022/06/02 10:40:39;;;;;;;1.77;1.20;;;18.30;56.70;;;;;;5074978;28;20529;-66
2022/06/02 10:43:09;;;;;;;2.25;1.08;;;18.30;56.80;;;;;;5073504;28;20539;-67
2022/06/02 10:46:11;;;;;;;1.98;1.15;;;18.40;56.60;;;;;;5053523;28;20179;-67
2022/06/02 10:49:17;;;;;;;1.67;1.30;;;18.50;56.40;;;;;;5052726;28;20218;-67
2022/06/02 10:52:02;;;;;;;1.55;1.30;;;18.60;56.30;;;;;;5069793;28;20178;-67
2022/06/02 10:54:37;;;;;;;1.25;1.10;;;18.60;56.20;;;;;;5034324;28;20251;-67
2022/06/02 10:57:21;;;;;;;1.45;0.90;;;18.60;56.10;;;;;;5034525;28;20598;-68
2022/06/02 11:00:16;;;;;;;1.60;1.20;;;18.60;56.10;;;;;;5033734;28;20171;-67
2022/06/02 11:03:08;;;;;;;1.20;1.00;;;18.70;56.10;;;;;;5051387;28;20691;-68
2022/06/02 11:05:49;;;;;;;1.90;1.15;;;18.60;56.10;;;;;;5053396;28;20175;-68
2022/06/02 11:08:24;;;;;;;1.30;0.80;;;18.60;56.10;;;;;;5054412;28;20199;-67
2022/06/02 11:11:01;;;;;;;1.08;1.00;;;18.50;56.20;;;;;;5054185;28;20189;-66
2022/06/02 11:13:50;;;;;;;1.75;1.20;;;18.50;56.30;;;;;;5052356;28;20189;-66
2022/06/02 11:16:24;;;;;;;1.85;1.30;;;18.50;56.30;;;;;;5053190;28;20183;-66
2022/06/02 11:19:11;;;;;;;1.13;1.02;;;18.60;56.10;;;;;;5053852;28;20219;-66
2022/06/02 11:21:39;;;;;;;1.45;1.10;;;18.60;56.00;;;;;;5053129;28;20568;-66
2022/06/02 11:24:20;;;;;;;1.95;1.25;;;18.60;55.90;;;;;;5055709;28;20175;-66
2022/06/02 11:26:51;;;;;;;2.38;1.20;;;18.70;56.00;;;;;;5072409;28;20246;-67
2022/06/02 11:29:40;;;;;;;2.05;1.17;;;18.80;55.90;;;;;;5074080;28;20217;-67
2022/06/02 11:32:25;;;;;;;4.07;1.00;;;18.80;55.70;;;;;;5072663;28;20268;-68
2022/06/02 11:35:09;;;;;;;1.90;1.02;;;18.90;55.70;;;;;;5072986;28;20178;-68
2022/06/02 11:37:46;;;;;;;1.33;1.20;;;18.90;55.60;;;;;;5073755;28;20225;-67
2022/06/02 11:40:30;;;;;;;2.45;1.08;;;18.90;55.60;;;;;;5073844;28;20178;-66
2022/06/02 11:43:20;;;;;;;1.15;1.00;;;19.00;55.60;;;;;;5072695;28;20178;-67
2022/06/02 11:45:48;;;;;;;0.82;0.82;;;19.00;55.50;;;;;;5073450;28;20212;-65
2022/06/02 11:48:22;;;;;;;2.13;1.08;;;19.00;55.60;;;;;;5072870;28;20293;-67
2022/06/02 11:51:08;;;;;;;1.77;1.00;;;19.00;55.50;;;;;;5071994;28;20263;-67
2022/06/02 11:53:59;;;;;;;2.45;1.15;;;19.10;55.60;;;;;;5057484;28;20262;-70
2022/06/02 11:56:37;;;;;;;3.47;1.10;;;19.00;55.50;;;;;;5052097;28;20520;-72
2022/06/02 11:59:08;;;;;;;4.22;1.17;;;19.10;55.50;;;;;;5053349;28;20673;-75
2022/06/02 12:01:40;;;;;;;2.95;1.50;;;19.10;55.60;;;;;;5053027;28;20336;-74
2022/06/02 12:04:24;;;;;;;1.25;1.00;;;19.10;55.50;;;;;;5052921;28;20167;-76
2022/06/02 12:07:11;;;;;;;1.80;1.00;;;19.20;55.60;;;;;;5052906;28;20677;-72
2022/06/02 12:09:45;;;;;;;3.10;1.00;;;19.20;55.60;;;;;;5051854;28;20301;-70
2022/06/02 12:12:41;;;;;;;2.90;1.10;;;19.30;55.60;;;;;;5053042;28;20576;-70
2022/06/02 12:15:45;;;;;;;7.60;1.27;;;19.30;55.40;;;;;;5052020;28;20174;-69
2022/06/02 12:18:14;;;;;;;1.30;1.05;;;19.30;55.30;;;;;;5052204;28;20595;-69
2022/06/02 12:21:01;;;;;;;2.45;0.93;;;19.30;55.30;;;;;;5051259;28;20170;-69
2022/06/02 12:23:43;;;;;;;2.65;1.20;;;19.40;55.30;;;;;;5052233;28;20262;-69
2022/06/02 12:26:11;;;;;;;1.38;1.05;;;19.50;55.10;;;;;;5070228;28;20178;-70
2022/06/02 12:28:53;;;;;;;2.45;1.08;;;19.50;55.10;;;;;;5072538;28;20309;-73
2022/06/02 12:31:46;;;;;;;1.90;1.20;;;19.50;55.10;;;;;;5070882;28;20177;-73
2022/06/02 12:34:43;;;;;;;2.38;1.10;;;19.60;55.00;;;;;;5072693;28;20179;-65
2022/06/02 12:37:15;;;;;;;2.17;0.95;;;19.60;54.90;;;;;;5070733;28;20232;-68
2022/06/02 12:39:54;;;;;;;1.65;1.17;;;19.60;54.70;;;;;;5072059;28;20649;-67
2022/06/02 12:42:42;;;;;;;2.40;1.10;;;19.60;54.70;;;;;;5056136;28;20262;-67
2022/06/02 12:45:20;;;;;;;1.40;1.10;;;19.70;54.60;;;;;;5071750;28;20170;-68
2022/06/02 12:48:08;;;;;;;3.50;1.40;;;19.70;54.60;;;;;;5070958;28;20622;-68
2022/06/02 12:50:45;;;;;;;2.40;1.20;;;19.70;54.50;;;;;;5072483;28;20674;-68
2022/06/02 12:53:48;;;;;;;0.98;0.98;;;19.70;54.50;;;;;;5058621;28;20175;-68
2022/06/02 12:56:48;;;;;;;2.65;1.00;;;19.60;54.60;;;;;;5052859;28;20167;-67
2022/06/02 12:59:30;;;;;;;1.80;0.85;;;19.60;54.50;;;;;;5039998;28;20194;-68
2022/06/02 13:02:26;;;;;;;1.85;0.85;;;19.70;54.40;;;;;;5050493;28;20222;-68
2022/06/02 13:05:01;;;;;;;0.70;0.70;;;19.70;54.30;;;;;;5036178;28;20191;-68
2022/06/02 13:08:06;;;;;;;1.15;0.80;;;19.80;54.30;;;;;;5050472;28;20201;-68
2022/06/02 13:10:55;;;;;;;2.63;1.35;;;19.70;54.30;;;;;;5051949;28;20661;-67
2022/06/02 13:13:32;;;;;;;0.90;0.88;;;19.80;54.20;;;;;;5048115;28;20256;-66
2022/06/02 13:16:28;;;;;;;1.40;0.90;;;19.80;54.00;;;;;;5051821;28;20187;-66
2022/06/02 13:19:31;;;;;;;1.00;0.90;;;19.90;54.00;;;;;;5051577;28;20172;-66
2022/06/02 13:22:16;;;;;;;1.23;0.90;;;19.90;54.00;;;;;;5051893;28;20179;-66
2022/06/02 13:25:06;;;;;;;2.53;1.00;;;19.90;54.00;;;;;;5057442;28;20167;-67
2022/06/02 13:27:50;;;;;;;1.13;1.00;;;19.90;53.90;;;;;;5054522;28;20166;-68
2022/06/02 13:30:36;;;;;;;0.93;0.93;;;20.00;53.90;;;;;;5071808;28;20190;-68
2022/06/02 13:33:01;;;;;;;1.33;0.90;;;20.00;53.90;;;;;;5070523;28;20332;-68
2022/06/02 13:35:42;;;;;;;0.77;0.77;;;20.10;53.80;;;;;;5071356;28;20655;-68
2022/06/02 13:38:26;;;;;;;1.83;0.88;;;20.10;53.70;;;;;;5071791;28;20590;-66
2022/06/02 13:41:14;;;;;;;1.33;1.00;;;20.10;53.60;;;;;;5070909;28;20185;-67
2022/06/02 13:43:47;;;;;;;1.17;0.93;;;20.10;53.60;;;;;;5070569;28;20255;-67
2022/06/02 13:46:25;;;;;;;0.85;0.85;;;20.20;53.60;;;;;;5070636;28;20234;-67
2022/06/02 13:48:53;;;;;;;0.90;0.90;;;20.20;53.50;;;;;;5069597;28;20650;-68
2022/06/02 13:52:00;;;;;;;2.05;1.02;;;20.20;53.50;;;;;;5075328;28;20648;-68
2022/06/02 13:57:32;;;;;;;0.77;0.77;;;20.30;53.40;;;;;;5034682;28;20586;-68
2022/06/02 14:00:09;;;;;;;1.70;0.93;;;20.30;53.40;;;;;;5034018;28;20183;-68
2022/06/02 14:02:52;;;;;;;0.80;0.80;;;20.20;53.50;;;;;;5034277;28;20744;-68
2022/06/02 14:05:24;;;;;;;0.98;0.98;;;20.10;53.70;;;;;;5034453;28;20179;-68
2022/06/02 14:08:01;;;;;;;0.80;0.80;;;20.00;53.90;;;;;;5035078;28;20187;-67
2022/06/02 14:10:45;;;;;;;1.00;0.88;;;19.90;54.00;;;;;;5034553;28;20531;-67
2022/06/02 14:13:20;;;;;;;0.88;0.85;;;20.00;54.00;;;;;;5035223;28;20738;-67
2022/06/02 14:16:02;;;;;;;0.80;0.80;;;20.10;53.90;;;;;;5033080;28;20275;-66
2022/06/02 14:18:35;;;;;;;1.52;0.90;;;20.20;53.80;;;;;;5034096;28;20541;-66
2022/06/02 14:21:06;;;;;;;0.80;0.80;;;20.20;53.70;;;;;;5035188;28;20190;-67
2022/06/02 14:24:12;;;;;;;1.15;1.00;;;20.20;53.80;;;;;;5034522;28;20178;-66
2022/06/02 14:27:07;;;;;;;0.80;0.80;;;20.10;53.90;;;;;;5033813;28;20164;-66
2022/06/02 14:29:52;;;;;;;1.67;1.05;;;20.00;54.10;;;;;;5048408;28;20582;-68